createdAt,value
2023-04-27T00:02:13.629Z,3.50
2023-04-27T00:04:43.356Z,3.10
2023-04-27T00:07:11.848Z,3.80
2023-04-27T00:09:39.862Z,3.10
2023-04-27T00:12:07.822Z,2.90
2023-04-27T00:14:36.125Z,3.20
2023-04-27T00:17:04.064Z,3.10
2023-04-27T00:19:32.488Z,2.40
2023-04-27T00:22:00.646Z,2.70
2023-04-27T00:24:28.801Z,2.70
2023-04-27T00:26:57.820Z,2.90
2023-04-27T00:29:26.141Z,2.80
2023-04-27T00:31:54.173Z,2.80
2023-04-27T00:34:23.697Z,3.00
2023-04-27T00:36:52.074Z,2.50
2023-04-27T00:39:21.857Z,3.00
2023-04-27T00:41:49.885Z,3.10
2023-04-27T00:44:28.009Z,2.90
2023-04-27T00:46:59.107Z,3.00
2023-04-27T00:49:27.779Z,2.70
2023-04-27T00:51:56.386Z,2.70
2023-04-27T00:54:24.963Z,2.70
2023-04-27T00:56:53.325Z,2.80
2023-04-27T00:59:21.941Z,2.80
2023-04-27T01:01:50.675Z,2.80
2023-04-27T01:04:20.604Z,2.60
2023-04-27T01:06:48.819Z,2.60
2023-04-27T01:09:19.697Z,2.90
2023-04-27T01:11:51.019Z,2.60
2023-04-27T01:14:21.058Z,2.60
2023-04-27T01:16:50.323Z,2.70
2023-04-27T01:19:21.757Z,2.90
2023-04-27T01:21:51.425Z,2.80
2023-04-27T01:24:21.700Z,2.60
2023-04-27T01:26:52.122Z,2.40
2023-04-27T01:29:22.683Z,2.10
2023-04-27T01:31:50.847Z,3.00
2023-04-27T01:34:18.795Z,2.90
2023-04-27T01:36:48.869Z,2.40
2023-04-27T01:39:16.931Z,2.90
2023-04-27T01:41:44.908Z,3.60
2023-04-27T01:44:15.886Z,3.20
2023-04-27T01:46:43.868Z,2.90
2023-04-27T01:49:12.115Z,2.60
2023-04-27T01:51:40.619Z,2.60
2023-04-27T01:54:13.972Z,2.20
2023-04-27T01:59:10.488Z,2.70
2023-04-27T02:01:38.364Z,2.40
2023-04-27T02:04:06.860Z,2.40
2023-04-27T02:06:37.967Z,3.10
2023-04-27T02:09:11.850Z,2.70
2023-04-27T02:11:43.164Z,2.60
2023-04-27T02:14:11.155Z,2.60
2023-04-27T02:16:42.984Z,2.90
2023-04-27T02:19:13.046Z,2.70
2023-04-27T02:21:41.161Z,2.50
2023-04-27T02:24:10.156Z,2.70
2023-04-27T02:26:38.115Z,2.80
2023-04-27T02:29:08.630Z,2.40
2023-04-27T02:31:40.509Z,2.80
2023-04-27T02:34:08.532Z,2.80
2023-04-27T02:36:38.236Z,2.70
2023-04-27T02:39:07.266Z,3.00
2023-04-27T02:41:35.407Z,2.70
2023-04-27T02:44:03.356Z,2.80
2023-04-27T02:46:32.465Z,2.60
2023-04-27T02:49:00.390Z,2.40
2023-04-27T02:51:28.411Z,2.30
2023-04-27T02:53:56.800Z,2.80
2023-04-27T02:56:24.745Z,2.40
2023-04-27T02:58:53.357Z,3.00
2023-04-27T03:01:21.382Z,2.70
2023-04-27T03:03:49.643Z,2.60
2023-04-27T03:06:17.677Z,2.90
2023-04-27T03:08:45.567Z,3.00
2023-04-27T03:11:13.561Z,3.00
2023-04-27T03:13:42.245Z,2.90
2023-04-27T03:16:11.556Z,2.80
2023-04-27T03:18:41.069Z,2.60
2023-04-27T03:21:10.830Z,3.00
2023-04-27T03:23:39.729Z,3.60
2023-04-27T03:26:12.390Z,3.80
2023-04-27T03:28:43.516Z,3.90
2023-04-27T03:31:14.064Z,3.20
2023-04-27T03:33:42.403Z,2.90
2023-04-27T03:36:13.024Z,3.50
2023-04-27T03:38:42.913Z,3.00
2023-04-27T03:41:11.744Z,3.10
2023-04-27T03:43:39.663Z,3.60
2023-04-27T03:46:07.750Z,3.30
2023-04-27T03:48:36.553Z,3.50
2023-04-27T03:51:04.733Z,2.90
2023-04-27T03:53:33.495Z,2.50
2023-04-27T03:56:02.335Z,2.80
2023-04-27T03:58:30.196Z,3.00
2023-04-27T04:01:27.451Z,2.90
2023-04-27T04:03:55.446Z,2.70
2023-04-27T04:06:23.402Z,2.70
2023-04-27T04:08:51.469Z,2.90
2023-04-27T04:11:19.517Z,2.80
2023-04-27T04:13:47.982Z,3.00
2023-04-27T04:16:16.096Z,3.30
2023-04-27T04:18:44.287Z,3.00
2023-04-27T04:21:12.372Z,2.60
2023-04-27T04:23:42.928Z,2.90
2023-04-27T04:26:11.563Z,2.70
2023-04-27T04:28:39.502Z,2.60
2023-04-27T04:31:09.933Z,2.80
2023-04-27T04:33:37.998Z,3.10
2023-04-27T04:36:06.873Z,2.70
2023-04-27T04:38:35.510Z,2.70
2023-04-27T04:41:03.713Z,3.40
2023-04-27T04:43:33.831Z,3.10
2023-04-27T04:46:04.532Z,3.20
2023-04-27T04:48:32.561Z,3.30
2023-04-27T04:51:00.567Z,2.80
2023-04-27T04:53:28.490Z,2.60
2023-04-27T04:55:56.880Z,2.60
2023-04-27T04:58:24.783Z,2.70
2023-04-27T05:00:52.678Z,2.60
2023-04-27T05:03:21.531Z,2.60
2023-04-27T05:05:49.752Z,2.80
2023-04-27T05:08:17.636Z,2.60
2023-04-27T05:10:55.085Z,3.00
2023-04-27T05:13:24.864Z,3.50
2023-04-27T05:15:53.099Z,3.10
2023-04-27T05:18:21.220Z,3.00
2023-04-27T05:20:49.120Z,2.90
2023-04-27T05:23:17.131Z,3.40
2023-04-27T05:25:45.167Z,2.70
2023-04-27T05:28:13.211Z,3.70
2023-04-27T05:30:41.149Z,3.50
2023-04-27T05:33:09.146Z,3.30
2023-04-27T05:35:37.171Z,3.10
2023-04-27T05:38:05.001Z,2.70
2023-04-27T05:40:32.785Z,2.50
2023-04-27T05:43:03.479Z,3.20
2023-04-27T05:45:31.458Z,3.90
2023-04-27T05:47:59.477Z,3.30
2023-04-27T05:50:27.431Z,2.90
2023-04-27T05:52:55.288Z,3.10
2023-04-27T05:55:23.276Z,3.00
2023-04-27T05:58:00.770Z,3.20
2023-04-27T06:00:36.596Z,2.50
2023-04-27T06:03:04.668Z,3.00
2023-04-27T06:05:34.465Z,3.40
2023-04-27T06:08:02.760Z,4.10
2023-04-27T06:10:30.879Z,3.60
2023-04-27T06:12:58.833Z,3.20
2023-04-27T06:15:26.767Z,3.50
2023-04-27T06:17:54.730Z,5.20
2023-04-27T06:20:22.581Z,5.00
2023-04-27T06:22:50.691Z,3.90
2023-04-27T06:25:18.744Z,3.80
2023-04-27T06:27:47.521Z,3.30
2023-04-27T06:30:15.482Z,3.40
2023-04-27T06:32:43.520Z,3.40
2023-04-27T06:35:11.679Z,3.10
2023-04-27T06:37:39.675Z,2.80
2023-04-27T06:40:08.208Z,3.00
2023-04-27T06:42:36.368Z,3.60
2023-04-27T06:45:05.687Z,2.70
2023-04-27T06:47:33.719Z,3.00
2023-04-27T06:50:01.718Z,2.90
2023-04-27T06:52:33.191Z,3.70
2023-04-27T06:55:01.109Z,2.80
2023-04-27T06:57:28.975Z,2.80
2023-04-27T06:59:56.907Z,2.70
2023-04-27T07:02:25.690Z,2.90
2023-04-27T07:04:53.990Z,2.70
2023-04-27T07:07:22.066Z,2.70
2023-04-27T07:09:49.996Z,2.90
2023-04-27T07:12:17.902Z,2.80
2023-04-27T07:14:46.370Z,2.90
2023-04-27T07:17:14.268Z,3.30
2023-04-27T07:19:42.206Z,3.20
2023-04-27T07:22:12.497Z,2.70
2023-04-27T07:24:40.407Z,2.90
2023-04-27T07:27:08.433Z,2.50
2023-04-27T07:29:37.949Z,2.80
2023-04-27T07:32:07.879Z,3.20
2023-04-27T07:34:48.966Z,2.80
2023-04-27T07:37:20.511Z,3.00
2023-04-27T07:39:50.455Z,3.40
2023-04-27T07:42:19.373Z,2.60
2023-04-27T07:44:47.467Z,3.00
2023-04-27T07:47:15.851Z,2.90
2023-04-27T07:49:46.420Z,3.40
2023-04-27T07:52:15.012Z,3.20
2023-04-27T07:54:43.226Z,2.90
2023-04-27T07:57:11.911Z,3.20
2023-04-27T07:59:40.201Z,2.90
2023-04-27T08:02:19.150Z,3.10
2023-04-27T08:04:50.063Z,2.70
2023-04-27T08:07:18.983Z,3.10
2023-04-27T08:09:50.885Z,2.60
2023-04-27T08:12:19.498Z,2.90
2023-04-27T08:14:47.470Z,2.60
2023-04-27T08:17:15.607Z,2.30
2023-04-27T08:19:43.637Z,2.70
2023-04-27T08:22:11.563Z,2.80
2023-04-27T08:24:39.523Z,2.60
2023-04-27T08:27:07.718Z,3.00
2023-04-27T08:29:36.152Z,3.90
2023-04-27T08:32:05.060Z,3.60
2023-04-27T08:34:33.080Z,3.20
2023-04-27T08:37:02.348Z,8.50
2023-04-27T08:39:30.382Z,3.00
2023-04-27T08:41:58.463Z,2.60
2023-04-27T08:44:26.775Z,3.40
2023-04-27T08:46:54.741Z,2.60
2023-04-27T08:49:22.811Z,3.90
2023-04-27T08:51:50.926Z,2.80
2023-04-27T08:54:19.450Z,2.40
2023-04-27T08:56:47.314Z,3.20
2023-04-27T08:59:17.267Z,2.70
2023-04-27T09:01:49.578Z,2.70
2023-04-27T09:04:18.691Z,2.70
2023-04-27T09:06:46.906Z,2.90
2023-04-27T09:09:25.392Z,3.50
2023-04-27T09:11:53.418Z,3.00
2023-04-27T09:14:23.247Z,3.00
2023-04-27T09:16:59.978Z,2.60
2023-04-27T09:19:30.081Z,2.40
2023-04-27T09:22:11.193Z,2.60
2023-04-27T09:24:39.271Z,2.50
2023-04-27T09:27:07.477Z,2.60
2023-04-27T09:29:37.761Z,2.40
2023-04-27T09:32:17.122Z,2.80
2023-04-27T09:34:45.742Z,2.70
2023-04-27T09:37:14.653Z,2.60
2023-04-27T09:39:43.002Z,2.40
2023-04-27T09:42:12.667Z,2.60
2023-04-27T09:44:40.709Z,2.80
2023-04-27T09:47:10.681Z,2.70
2023-04-27T09:49:38.963Z,2.50
2023-04-27T09:52:07.052Z,2.60
2023-04-27T09:54:36.786Z,2.20
2023-04-27T09:57:26.619Z,2.60
2023-04-27T10:00:08.026Z,2.60
2023-04-27T10:03:07.750Z,2.70
2023-04-27T10:05:51.290Z,2.20
2023-04-27T10:08:20.776Z,2.40
2023-04-27T10:10:49.305Z,2.80
2023-04-27T10:13:25.260Z,3.20
2023-04-27T10:15:53.775Z,2.70
2023-04-27T10:18:33.552Z,2.50
2023-04-27T10:21:11.205Z,3.40
2023-04-27T10:23:48.352Z,5.70
2023-04-27T10:26:28.173Z,4.10
2023-04-27T10:29:12.125Z,2.50
2023-04-27T10:31:45.050Z,2.60
2023-04-27T10:34:20.567Z,2.60
2023-04-27T10:36:49.469Z,2.70
2023-04-27T10:39:36.188Z,2.30
2023-04-27T10:42:14.329Z,2.80
2023-04-27T10:44:42.327Z,2.30
2023-04-27T10:47:15.905Z,2.40
2023-04-27T10:49:43.950Z,2.40
2023-04-27T10:52:11.797Z,2.70
2023-04-27T10:54:40.000Z,2.50
2023-04-27T10:57:10.060Z,2.80
2023-04-27T10:59:50.060Z,2.90
2023-04-27T11:02:26.413Z,2.70
2023-04-27T11:04:56.571Z,2.80
2023-04-27T11:07:29.215Z,2.70
2023-04-27T11:09:57.175Z,2.90
2023-04-27T11:12:25.104Z,2.70
2023-04-27T11:14:59.106Z,3.50
2023-04-27T11:17:30.910Z,6.40
2023-04-27T11:19:59.127Z,3.60
2023-04-27T11:22:27.553Z,2.20
2023-04-27T11:24:56.491Z,2.60
2023-04-27T11:27:25.425Z,2.40
2023-04-27T11:29:53.335Z,3.00
2023-04-27T11:32:23.016Z,6.50
2023-04-27T11:34:56.618Z,3.00
2023-04-27T11:37:27.726Z,3.00
2023-04-27T11:40:00.028Z,3.10
2023-04-27T11:42:29.250Z,3.50
2023-04-27T11:44:59.967Z,3.30
2023-04-27T11:47:30.559Z,4.00
2023-04-27T11:50:04.938Z,3.00
2023-04-27T11:52:37.331Z,4.70
2023-04-27T11:55:06.178Z,3.70
2023-04-27T11:57:38.448Z,3.00
2023-04-27T12:00:14.705Z,2.80
2023-04-27T12:02:44.503Z,2.60
2023-04-27T12:05:13.682Z,2.50
2023-04-27T12:07:43.321Z,2.50
2023-04-27T12:10:11.917Z,2.80
2023-04-27T12:12:40.157Z,2.50
2023-04-27T12:15:09.197Z,2.10
2023-04-27T12:17:38.322Z,2.60
2023-04-27T12:20:06.806Z,2.80
2023-04-27T12:22:34.584Z,2.60
2023-04-27T12:25:02.680Z,2.40
2023-04-27T12:27:30.893Z,2.80
2023-04-27T12:29:59.718Z,3.00
2023-04-27T12:32:28.133Z,2.40
2023-04-27T12:34:56.362Z,2.40
2023-04-27T12:37:26.662Z,2.30
2023-04-27T12:42:24.442Z,2.40
2023-04-27T12:44:53.710Z,2.60
2023-04-27T12:47:43.115Z,2.90
2023-04-27T12:50:10.818Z,2.80
2023-04-27T12:52:38.939Z,2.90
2023-04-27T12:55:15.245Z,2.70
2023-04-27T12:57:49.645Z,2.70
2023-04-27T13:00:17.842Z,2.60
2023-04-27T13:02:46.453Z,3.10
2023-04-27T13:05:14.801Z,2.90
2023-04-27T13:07:42.898Z,3.30
2023-04-27T13:10:12.177Z,2.70
2023-04-27T13:12:40.895Z,4.80
2023-04-27T13:15:09.676Z,3.10
2023-04-27T13:17:37.945Z,3.00
2023-04-27T13:20:07.344Z,4.50
2023-04-27T13:22:35.555Z,3.40
2023-04-27T13:25:03.655Z,2.70
2023-04-27T13:27:31.532Z,4.50
2023-04-27T13:29:59.406Z,2.80
2023-04-27T13:32:27.570Z,3.50
2023-04-27T13:34:55.748Z,2.90
2023-04-27T13:37:23.669Z,2.80
2023-04-27T13:39:51.829Z,2.70
2023-04-27T13:42:19.850Z,2.80
2023-04-27T13:44:47.743Z,2.60
2023-04-27T13:47:15.694Z,2.50
2023-04-27T13:49:43.627Z,3.10
2023-04-27T13:52:11.559Z,3.00
2023-04-27T13:54:39.652Z,3.50
2023-04-27T13:57:07.480Z,3.50
2023-04-27T13:59:35.341Z,2.90
2023-04-27T14:02:03.458Z,4.80
2023-04-27T14:04:32.654Z,4.90
2023-04-27T14:07:00.748Z,4.00
2023-04-27T14:09:28.814Z,4.80
2023-04-27T14:11:57.825Z,3.60
2023-04-27T14:14:27.470Z,4.10
2023-04-27T14:16:57.358Z,4.70
2023-04-27T14:19:31.554Z,2.70
2023-04-27T14:22:04.590Z,4.10
2023-04-27T14:24:32.756Z,3.40
2023-04-27T14:27:03.095Z,3.60
2023-04-27T14:29:31.264Z,3.30
2023-04-27T14:32:10.235Z,3.50
2023-04-27T14:34:40.940Z,3.60
2023-04-27T14:37:09.527Z,3.30
2023-04-27T14:39:38.069Z,4.00
2023-04-27T14:42:05.941Z,4.10
2023-04-27T14:44:36.298Z,4.50
2023-04-27T14:47:04.249Z,4.20
2023-04-27T14:49:32.283Z,4.90
2023-04-27T14:52:04.077Z,4.60
2023-04-27T14:54:32.513Z,3.20
2023-04-27T14:57:01.205Z,3.00
2023-04-27T14:59:29.428Z,3.70
2023-04-27T15:01:57.725Z,4.00
2023-04-27T15:04:25.935Z,4.00
2023-04-27T15:06:54.106Z,5.30
2023-04-27T15:09:21.994Z,3.70
2023-04-27T15:11:49.984Z,5.00
2023-04-27T15:14:17.995Z,3.70
2023-04-27T15:16:45.908Z,4.10
2023-04-27T15:19:14.068Z,5.00
2023-04-27T15:21:42.202Z,7.50
2023-04-27T15:24:10.265Z,10.60
2023-04-27T15:26:38.048Z,5.20
2023-04-27T15:29:05.971Z,3.50
2023-04-27T15:31:34.141Z,3.00
2023-04-27T15:34:02.331Z,2.90
2023-04-27T15:36:30.412Z,2.80
2023-04-27T15:38:58.300Z,3.10
2023-04-27T15:41:26.320Z,3.10
2023-04-27T15:43:54.439Z,3.30
2023-04-27T15:46:22.533Z,3.50
2023-04-27T15:48:50.518Z,4.10
2023-04-27T15:51:18.518Z,4.50
2023-04-27T15:53:46.462Z,4.90
2023-04-27T15:56:15.873Z,4.20
2023-04-27T15:58:43.906Z,4.30
2023-04-27T16:01:12.024Z,3.90
2023-04-27T16:03:40.293Z,4.40
2023-04-27T16:06:08.522Z,4.20
2023-04-27T16:08:36.479Z,3.80
2023-04-27T16:11:04.615Z,4.20
2023-04-27T16:13:32.767Z,4.10
2023-04-27T16:16:01.205Z,3.30
2023-04-27T16:18:29.157Z,3.90
2023-04-27T16:20:57.127Z,3.60
2023-04-27T16:23:25.107Z,3.70
2023-04-27T16:25:53.033Z,3.90
2023-04-27T16:28:20.970Z,4.60
2023-04-27T16:30:49.459Z,5.40
2023-04-27T16:33:19.365Z,5.00
2023-04-27T16:35:47.709Z,4.10
2023-04-27T16:38:15.927Z,4.00
2023-04-27T16:40:47.229Z,3.80
2023-04-27T16:43:15.349Z,3.80
2023-04-27T16:45:43.370Z,4.00
2023-04-27T16:48:12.434Z,3.50
2023-04-27T16:50:41.101Z,3.50
2023-04-27T16:53:13.716Z,3.50
2023-04-27T16:55:41.866Z,6.00
2023-04-27T16:58:09.766Z,6.70
2023-04-27T17:00:39.615Z,7.10
2023-04-27T17:03:07.701Z,4.80
2023-04-27T17:05:36.084Z,5.20
2023-04-27T17:08:05.510Z,5.50
2023-04-27T17:10:35.686Z,4.60
2023-04-27T17:13:05.059Z,4.90
2023-04-27T17:15:33.185Z,4.60
2023-04-27T17:18:05.082Z,4.60
2023-04-27T17:20:33.229Z,4.80
2023-04-27T17:23:01.317Z,6.10
2023-04-27T17:25:29.253Z,5.20
2023-04-27T17:27:58.086Z,5.50
2023-04-27T17:30:27.427Z,5.00
2023-04-27T17:32:55.460Z,4.90
2023-04-27T17:35:23.614Z,4.60
2023-04-27T17:37:52.429Z,4.70
2023-04-27T17:40:21.217Z,4.60
2023-04-27T17:42:49.748Z,3.50
2023-04-27T17:45:17.651Z,4.70
2023-04-27T17:47:46.262Z,5.50
2023-04-27T17:50:14.873Z,5.10
2023-04-27T17:52:43.291Z,5.20
2023-04-27T17:55:11.198Z,5.60
2023-04-27T17:57:40.837Z,6.40
2023-04-27T18:00:10.430Z,5.90
2023-04-27T18:02:39.487Z,7.90
2023-04-27T18:05:07.901Z,8.30
2023-04-27T18:07:39.278Z,8.20
2023-04-27T18:10:08.324Z,9.00
2023-04-27T18:12:36.725Z,14.40
2023-04-27T18:15:06.919Z,13.50
2023-04-27T18:17:36.785Z,13.20
2023-04-27T18:20:09.503Z,11.90
2023-04-27T18:22:40.182Z,11.00
2023-04-27T18:25:11.427Z,11.70
2023-04-27T18:27:39.405Z,11.70
2023-04-27T18:30:08.651Z,11.70
2023-04-27T18:32:37.891Z,10.60
2023-04-27T18:35:06.457Z,10.80
2023-04-27T18:37:34.672Z,10.80
2023-04-27T18:40:05.244Z,12.80
2023-04-27T18:42:35.388Z,15.20
2023-04-27T18:45:03.365Z,14.60
2023-04-27T18:47:31.466Z,14.80
2023-04-27T18:49:59.441Z,16.80
2023-04-27T18:52:27.399Z,21.00
2023-04-27T18:54:57.638Z,17.70
2023-04-27T18:57:26.943Z,14.60
2023-04-27T18:59:54.980Z,12.70
2023-04-27T19:02:25.178Z,11.90
2023-04-27T19:05:07.570Z,13.00
2023-04-27T19:07:40.985Z,13.40
2023-04-27T19:10:09.702Z,14.40
2023-04-27T19:12:37.904Z,14.50
2023-04-27T19:15:06.371Z,14.10
2023-04-27T19:17:35.115Z,13.10
2023-04-27T19:20:03.882Z,14.80
2023-04-27T19:22:34.326Z,17.30
2023-04-27T19:25:06.346Z,16.40
2023-04-27T19:27:34.420Z,17.60
2023-04-27T19:30:04.299Z,18.00
2023-04-27T19:32:33.952Z,19.30
2023-04-27T19:35:02.700Z,22.10
2023-04-27T19:37:30.578Z,25.90
2023-04-27T19:39:58.587Z,25.80
2023-04-27T19:42:27.199Z,30.40
2023-04-27T19:44:55.897Z,33.50
2023-04-27T19:47:23.968Z,33.90
2023-04-27T19:49:52.222Z,31.50
2023-04-27T19:52:20.425Z,32.80
2023-04-27T19:54:54.478Z,25.40
2023-04-27T19:57:22.461Z,20.80
2023-04-27T19:59:50.604Z,19.40
2023-04-27T20:02:19.107Z,16.40
2023-04-27T20:04:47.792Z,15.80
2023-04-27T20:07:16.271Z,15.60
2023-04-27T20:09:48.955Z,15.40
2023-04-27T20:12:40.056Z,15.70
2023-04-27T20:15:05.326Z,16.20
2023-04-27T20:17:33.399Z,29.60
2023-04-27T20:20:02.299Z,34.80
2023-04-27T20:22:31.234Z,32.70
2023-04-27T20:25:01.108Z,29.70
2023-04-27T20:27:29.595Z,28.00
2023-04-27T20:29:57.646Z,26.30
2023-04-27T20:32:25.561Z,25.00
2023-04-27T20:34:55.172Z,21.00
2023-04-27T20:37:24.875Z,20.60
2023-04-27T20:39:55.232Z,20.30
2023-04-27T20:42:25.429Z,21.90
2023-04-27T20:44:57.367Z,23.90
2023-04-27T20:47:26.859Z,23.00
2023-04-27T20:49:57.081Z,24.50
2023-04-27T20:52:30.664Z,23.70
2023-04-27T20:55:05.558Z,22.60
2023-04-27T20:57:33.691Z,26.00
2023-04-27T21:00:01.918Z,27.20
2023-04-27T21:02:29.860Z,25.10
2023-04-27T21:05:07.283Z,25.30
2023-04-27T21:07:35.466Z,25.40
2023-04-27T21:10:06.878Z,21.90
2023-04-27T21:12:34.864Z,23.30
2023-04-27T21:15:03.715Z,22.50
2023-04-27T21:17:31.670Z,21.30
2023-04-27T21:20:02.695Z,22.30
2023-04-27T21:22:34.073Z,40.30
2023-04-27T21:25:02.855Z,42.20
2023-04-27T21:27:31.461Z,44.20
2023-04-27T21:30:01.567Z,44.50
2023-04-27T21:32:32.077Z,40.50
2023-04-27T21:35:02.207Z,37.00
2023-04-27T21:37:33.372Z,26.40
2023-04-27T21:40:03.498Z,28.30
2023-04-27T21:42:32.108Z,27.90
2023-04-27T21:45:00.793Z,30.20
2023-04-27T21:47:28.787Z,36.40
2023-04-27T21:49:56.855Z,32.00
2023-04-27T21:52:24.789Z,28.50
2023-04-27T21:54:52.707Z,29.50
2023-04-27T21:57:20.729Z,28.90
2023-04-27T21:59:48.601Z,27.20
2023-04-27T22:02:16.585Z,25.40
2023-04-27T22:04:45.340Z,23.40
2023-04-27T22:07:14.312Z,23.50
2023-04-27T22:09:42.275Z,20.20
2023-04-27T22:12:10.475Z,19.50
2023-04-27T22:14:38.325Z,17.70
2023-04-27T22:17:07.641Z,16.40
2023-04-27T22:19:36.110Z,16.80
2023-04-27T22:22:04.135Z,17.10
2023-04-27T22:24:32.039Z,16.40
2023-04-27T22:27:00.501Z,17.00
2023-04-27T22:29:28.486Z,15.80
2023-04-27T22:31:56.462Z,16.90
2023-04-27T22:34:24.520Z,16.00
2023-04-27T22:36:53.408Z,16.00
2023-04-27T22:39:21.461Z,16.90
2023-04-27T22:41:49.457Z,16.30
2023-04-27T22:44:17.663Z,15.80
2023-04-27T22:46:46.233Z,15.90
2023-04-27T22:49:15.177Z,15.80
2023-04-27T22:51:43.814Z,15.70
2023-04-27T22:54:11.664Z,15.30
2023-04-27T22:56:39.627Z,16.00
2023-04-27T22:59:07.504Z,15.20
2023-04-27T23:01:35.723Z,14.60
2023-04-27T23:04:03.959Z,15.50
2023-04-27T23:06:32.010Z,14.10
2023-04-27T23:08:59.836Z,13.90
2023-04-27T23:11:27.880Z,13.20
2023-04-27T23:13:57.567Z,13.30
2023-04-27T23:16:25.953Z,12.90
2023-04-27T23:18:54.070Z,12.30
2023-04-27T23:21:21.969Z,12.30
2023-04-27T23:23:49.870Z,12.00
2023-04-27T23:26:17.944Z,12.20
2023-04-27T23:28:46.126Z,12.50
2023-04-27T23:31:14.079Z,11.70
2023-04-27T23:33:41.976Z,13.00
2023-04-27T23:36:10.030Z,13.50
2023-04-27T23:38:37.885Z,13.00
2023-04-27T23:41:05.878Z,12.20
2023-04-27T23:43:34.096Z,12.70
2023-04-27T23:46:02.579Z,12.80
2023-04-27T23:48:30.520Z,12.40
2023-04-27T23:51:02.981Z,11.80
2023-04-27T23:53:31.478Z,12.70
2023-04-27T23:55:59.358Z,11.80
2023-04-27T23:58:27.388Z,11.70
